sensor_id;sensor_type;location;lat;lon;timestamp;temperature;humidity
17887;DHT22;9069;52.044;7.472;2024-03-25T00:01:34;9.90;97.10
17887;DHT22;9069;52.044;7.472;2024-03-25T00:04:00;9.90;97.10
17887;DHT22;9069;52.044;7.472;2024-03-25T00:06:27;9.90;97.10
17887;DHT22;9069;52.044;7.472;2024-03-25T00:08:53;9.90;97.10
17887;DHT22;9069;52.044;7.472;2024-03-25T00:11:18;9.90;97.00
17887;DHT22;9069;52.044;7.472;2024-03-25T00:13:44;9.90;97.00
17887;DHT22;9069;52.044;7.472;2024-03-25T00:16:10;9.90;96.90
17887;DHT22;9069;52.044;7.472;2024-03-25T00:18:36;9.90;96.90
17887;DHT22;9069;52.044;7.472;2024-03-25T00:21:03;9.80;96.80
17887;DHT22;9069;52.044;7.472;2024-03-25T00:23:29;9.80;96.80
17887;DHT22;9069;52.044;7.472;2024-03-25T00:25:55;9.80;96.80
17887;DHT22;9069;52.044;7.472;2024-03-25T00:28:21;9.80;96.80
17887;DHT22;9069;52.044;7.472;2024-03-25T00:30:47;9.80;96.80
17887;DHT22;9069;52.044;7.472;2024-03-25T00:33:13;9.80;96.80
17887;DHT22;9069;52.044;7.472;2024-03-25T00:35:39;9.70;96.80
17887;DHT22;9069;52.044;7.472;2024-03-25T00:38:05;9.70;96.80
17887;DHT22;9069;52.044;7.472;2024-03-25T00:40:31;9.70;96.80
17887;DHT22;9069;52.044;7.472;2024-03-25T00:42:56;9.70;96.90
17887;DHT22;9069;52.044;7.472;2024-03-25T00:45:23;9.70;96.90
17887;DHT22;9069;52.044;7.472;2024-03-25T00:47:51;9.70;97.00
17887;DHT22;9069;52.044;7.472;2024-03-25T00:50:17;9.70;97.00
17887;DHT22;9069;52.044;7.472;2024-03-25T00:52:43;9.70;97.00
17887;DHT22;9069;52.044;7.472;2024-03-25T00:55:09;9.70;97.40
17887;DHT22;9069;52.044;7.472;2024-03-25T00:57:35;9.70;97.10
17887;DHT22;9069;52.044;7.472;2024-03-25T01:00:01;9.70;97.10
17887;DHT22;9069;52.044;7.472;2024-03-25T01:02:30;9.70;97.10
17887;DHT22;9069;52.044;7.472;2024-03-25T01:04:56;9.60;97.10
17887;DHT22;9069;52.044;7.472;2024-03-25T01:07:22;9.80;97.10
17887;DHT22;9069;52.044;7.472;2024-03-25T01:09:48;9.70;97.10
17887;DHT22;9069;52.044;7.472;2024-03-25T01:12:14;9.70;97.20
17887;DHT22;9069;52.044;7.472;2024-03-25T01:14:40;9.70;97.20
17887;DHT22;9069;52.044;7.472;2024-03-25T01:17:06;9.60;97.20
17887;DHT22;9069;52.044;7.472;2024-03-25T01:19:31;9.80;97.30
17887;DHT22;9069;52.044;7.472;2024-03-25T01:21:57;9.60;97.30
17887;DHT22;9069;52.044;7.472;2024-03-25T01:24:23;9.60;97.20
17887;DHT22;9069;52.044;7.472;2024-03-25T01:26:49;9.70;97.20
17887;DHT22;9069;52.044;7.472;2024-03-25T01:29:15;9.60;97.10
17887;DHT22;9069;52.044;7.472;2024-03-25T01:31:41;9.60;97.10
17887;DHT22;9069;52.044;7.472;2024-03-25T01:34:07;9.60;97.00
17887;DHT22;9069;52.044;7.472;2024-03-25T01:36:33;9.60;97.00
17887;DHT22;9069;52.044;7.472;2024-03-25T01:39:00;9.60;97.00
17887;DHT22;9069;52.044;7.472;2024-03-25T01:41:25;9.60;97.00
17887;DHT22;9069;52.044;7.472;2024-03-25T01:43:52;9.60;96.90
17887;DHT22;9069;52.044;7.472;2024-03-25T01:46:18;9.60;96.90
17887;DHT22;9069;52.044;7.472;2024-03-25T01:48:45;9.50;96.90
17887;DHT22;9069;52.044;7.472;2024-03-25T01:51:17;9.60;96.90
17887;DHT22;9069;52.044;7.472;2024-03-25T01:53:43;9.60;96.90
17887;DHT22;9069;52.044;7.472;2024-03-25T01:56:10;9.50;96.80
17887;DHT22;9069;52.044;7.472;2024-03-25T01:58:37;9.50;96.90
17887;DHT22;9069;52.044;7.472;2024-03-25T02:01:04;9.50;96.90
17887;DHT22;9069;52.044;7.472;2024-03-25T02:03:31;9.50;97.00
17887;DHT22;9069;52.044;7.472;2024-03-25T02:06:02;9.50;97.00
17887;DHT22;9069;52.044;7.472;2024-03-25T02:08:31;9.50;97.10
17887;DHT22;9069;52.044;7.472;2024-03-25T02:10:58;9.50;97.10
17887;DHT22;9069;52.044;7.472;2024-03-25T02:13:25;9.50;97.00
17887;DHT22;9069;52.044;7.472;2024-03-25T02:15:51;9.50;97.00
17887;DHT22;9069;52.044;7.472;2024-03-25T02:18:17;9.50;96.90
17887;DHT22;9069;52.044;7.472;2024-03-25T02:20:44;9.50;96.90
17887;DHT22;9069;52.044;7.472;2024-03-25T02:23:11;9.50;96.90
17887;DHT22;9069;52.044;7.472;2024-03-25T02:25:39;9.50;96.80
17887;DHT22;9069;52.044;7.472;2024-03-25T02:28:06;9.50;96.80
17887;DHT22;9069;52.044;7.472;2024-03-25T02:30:33;9.40;96.70
17887;DHT22;9069;52.044;7.472;2024-03-25T02:32:59;9.40;96.70
17887;DHT22;9069;52.044;7.472;2024-03-25T02:35:26;9.50;96.70
17887;DHT22;9069;52.044;7.472;2024-03-25T02:37:53;9.40;96.70
17887;DHT22;9069;52.044;7.472;2024-03-25T02:40:20;9.40;96.70
17887;DHT22;9069;52.044;7.472;2024-03-25T02:42:47;9.40;96.80
17887;DHT22;9069;52.044;7.472;2024-03-25T02:45:13;9.40;96.80
17887;DHT22;9069;52.044;7.472;2024-03-25T02:47:39;9.40;96.90
17887;DHT22;9069;52.044;7.472;2024-03-25T02:50:05;9.30;96.90
17887;DHT22;9069;52.044;7.472;2024-03-25T02:52:31;9.40;96.90
17887;DHT22;9069;52.044;7.472;2024-03-25T02:54:57;9.30;96.90
17887;DHT22;9069;52.044;7.472;2024-03-25T02:57:23;9.30;96.90
17887;DHT22;9069;52.044;7.472;2024-03-25T02:59:49;9.40;97.00
17887;DHT22;9069;52.044;7.472;2024-03-25T03:02:15;9.40;96.90
17887;DHT22;9069;52.044;7.472;2024-03-25T03:04:41;9.40;96.90
17887;DHT22;9069;52.044;7.472;2024-03-25T03:07:07;9.40;96.90
17887;DHT22;9069;52.044;7.472;2024-03-25T03:09:33;9.40;96.80
17887;DHT22;9069;52.044;7.472;2024-03-25T03:11:58;9.30;96.80
17887;DHT22;9069;52.044;7.472;2024-03-25T03:14:24;9.30;96.70
17887;DHT22;9069;52.044;7.472;2024-03-25T03:16:50;9.30;96.70
17887;DHT22;9069;52.044;7.472;2024-03-25T03:19:21;9.30;96.70
17887;DHT22;9069;52.044;7.472;2024-03-25T03:21:46;9.30;96.70
17887;DHT22;9069;52.044;7.472;2024-03-25T03:24:12;9.30;96.70
17887;DHT22;9069;52.044;7.472;2024-03-25T03:26:38;9.30;96.70
17887;DHT22;9069;52.044;7.472;2024-03-25T03:29:04;9.30;96.70
17887;DHT22;9069;52.044;7.472;2024-03-25T03:31:30;9.30;96.70
17887;DHT22;9069;52.044;7.472;2024-03-25T03:33:56;9.30;96.70
17887;DHT22;9069;52.044;7.472;2024-03-25T03:36:22;9.30;96.70
17887;DHT22;9069;52.044;7.472;2024-03-25T03:38:52;9.30;96.70
17887;DHT22;9069;52.044;7.472;2024-03-25T03:41:18;9.20;96.80
17887;DHT22;9069;52.044;7.472;2024-03-25T03:43:44;9.30;96.80
17887;DHT22;9069;52.044;7.472;2024-03-25T03:46:10;9.30;96.80
17887;DHT22;9069;52.044;7.472;2024-03-25T03:48:36;9.30;96.90
17887;DHT22;9069;52.044;7.472;2024-03-25T03:51:08;9.30;96.90
17887;DHT22;9069;52.044;7.472;2024-03-25T03:53:35;9.30;97.10
17887;DHT22;9069;52.044;7.472;2024-03-25T03:56:06;9.30;97.00
17887;DHT22;9069;52.044;7.472;2024-03-25T03:58:33;9.30;97.10
17887;DHT22;9069;52.044;7.472;2024-03-25T04:00:59;9.30;97.00
17887;DHT22;9069;52.044;7.472;2024-03-25T04:03:30;9.30;97.10
17887;DHT22;9069;52.044;7.472;2024-03-25T04:05:56;9.30;97.10
17887;DHT22;9069;52.044;7.472;2024-03-25T04:08:22;9.30;97.10
17887;DHT22;9069;52.044;7.472;2024-03-25T04:10:48;9.30;97.10
17887;DHT22;9069;52.044;7.472;2024-03-25T04:13:14;9.30;97.10
17887;DHT22;9069;52.044;7.472;2024-03-25T04:15:41;9.30;97.10
17887;DHT22;9069;52.044;7.472;2024-03-25T04:18:07;9.30;97.20
17887;DHT22;9069;52.044;7.472;2024-03-25T04:20:41;9.30;97.20
17887;DHT22;9069;52.044;7.472;2024-03-25T04:23:07;9.30;97.30
17887;DHT22;9069;52.044;7.472;2024-03-25T04:25:34;9.40;97.20
17887;DHT22;9069;52.044;7.472;2024-03-25T04:28:00;9.40;97.20
17887;DHT22;9069;52.044;7.472;2024-03-25T04:30:27;9.40;97.30
17887;DHT22;9069;52.044;7.472;2024-03-25T04:32:53;9.40;97.30
17887;DHT22;9069;52.044;7.472;2024-03-25T04:35:19;9.40;97.30
17887;DHT22;9069;52.044;7.472;2024-03-25T04:37:45;9.40;97.40
17887;DHT22;9069;52.044;7.472;2024-03-25T04:40:11;9.40;97.40
17887;DHT22;9069;52.044;7.472;2024-03-25T04:42:40;9.40;97.30
17887;DHT22;9069;52.044;7.472;2024-03-25T04:45:06;9.40;97.30
17887;DHT22;9069;52.044;7.472;2024-03-25T04:47:32;9.40;97.20
17887;DHT22;9069;52.044;7.472;2024-03-25T04:49:59;9.40;97.20
17887;DHT22;9069;52.044;7.472;2024-03-25T04:52:25;9.40;97.20
17887;DHT22;9069;52.044;7.472;2024-03-25T04:54:52;9.40;97.20
17887;DHT22;9069;52.044;7.472;2024-03-25T04:57:18;9.50;97.20
17887;DHT22;9069;52.044;7.472;2024-03-25T04:59:44;9.40;97.20
17887;DHT22;9069;52.044;7.472;2024-03-25T05:02:10;9.40;97.20
17887;DHT22;9069;52.044;7.472;2024-03-25T05:04:36;9.40;97.20
17887;DHT22;9069;52.044;7.472;2024-03-25T05:07:02;9.40;97.30
17887;DHT22;9069;52.044;7.472;2024-03-25T05:09:29;9.30;97.20
17887;DHT22;9069;52.044;7.472;2024-03-25T05:11:55;9.40;97.30
17887;DHT22;9069;52.044;7.472;2024-03-25T05:14:20;9.40;97.30
17887;DHT22;9069;52.044;7.472;2024-03-25T05:16:46;9.40;97.30
17887;DHT22;9069;52.044;7.472;2024-03-25T05:19:12;9.30;97.20
17887;DHT22;9069;52.044;7.472;2024-03-25T05:21:40;9.40;97.30
17887;DHT22;9069;52.044;7.472;2024-03-25T05:24:06;9.30;97.20
17887;DHT22;9069;52.044;7.472;2024-03-25T05:26:33;9.30;97.20
17887;DHT22;9069;52.044;7.472;2024-03-25T05:28:59;9.30;97.20
17887;DHT22;9069;52.044;7.472;2024-03-25T05:31:25;9.30;97.20
17887;DHT22;9069;52.044;7.472;2024-03-25T05:33:51;9.40;97.30
17887;DHT22;9069;52.044;7.472;2024-03-25T05:36:17;9.30;97.20
17887;DHT22;9069;52.044;7.472;2024-03-25T05:38:43;9.30;97.20
17887;DHT22;9069;52.044;7.472;2024-03-25T05:41:10;9.30;97.30
17887;DHT22;9069;52.044;7.472;2024-03-25T05:43:36;9.30;97.30
17887;DHT22;9069;52.044;7.472;2024-03-25T05:46:03;9.50;97.40
17887;DHT22;9069;52.044;7.472;2024-03-25T05:48:29;9.40;97.40
17887;DHT22;9069;52.044;7.472;2024-03-25T05:51:06;9.40;97.40
17887;DHT22;9069;52.044;7.472;2024-03-25T05:53:36;9.40;97.40
17887;DHT22;9069;52.044;7.472;2024-03-25T05:56:03;9.40;97.40
17887;DHT22;9069;52.044;7.472;2024-03-25T05:58:31;9.40;97.40
17887;DHT22;9069;52.044;7.472;2024-03-25T06:00:57;9.50;97.40
17887;DHT22;9069;52.044;7.472;2024-03-25T06:03:23;9.40;97.40
17887;DHT22;9069;52.044;7.472;2024-03-25T06:05:49;9.40;97.40
17887;DHT22;9069;52.044;7.472;2024-03-25T06:08:15;9.40;97.40
17887;DHT22;9069;52.044;7.472;2024-03-25T06:10:50;9.50;97.40
17887;DHT22;9069;52.044;7.472;2024-03-25T06:13:17;9.40;97.50
17887;DHT22;9069;52.044;7.472;2024-03-25T06:15:44;9.50;97.50
17887;DHT22;9069;52.044;7.472;2024-03-25T06:18:10;9.50;97.50
17887;DHT22;9069;52.044;7.472;2024-03-25T06:20:36;9.50;97.60
17887;DHT22;9069;52.044;7.472;2024-03-25T06:23:02;9.60;97.60
17887;DHT22;9069;52.044;7.472;2024-03-25T06:25:29;9.60;97.60
17887;DHT22;9069;52.044;7.472;2024-03-25T06:27:56;9.70;97.70
17887;DHT22;9069;52.044;7.472;2024-03-25T06:30:22;9.60;97.60
17887;DHT22;9069;52.044;7.472;2024-03-25T06:33:06;9.60;97.60
17887;DHT22;9069;52.044;7.472;2024-03-25T06:35:51;9.60;97.60
17887;DHT22;9069;52.044;7.472;2024-03-25T06:38:18;9.70;97.70
17887;DHT22;9069;52.044;7.472;2024-03-25T06:40:45;9.70;97.60
17887;DHT22;9069;52.044;7.472;2024-03-25T06:43:12;9.70;97.60
17887;DHT22;9069;52.044;7.472;2024-03-25T06:45:38;9.80;97.60
17887;DHT22;9069;52.044;7.472;2024-03-25T06:48:04;9.80;97.60
17887;DHT22;9069;52.044;7.472;2024-03-25T06:50:30;9.80;97.60
17887;DHT22;9069;52.044;7.472;2024-03-25T06:52:56;9.80;97.70
17887;DHT22;9069;52.044;7.472;2024-03-25T06:55:22;9.90;97.80
17887;DHT22;9069;52.044;7.472;2024-03-25T06:57:53;9.90;97.80
17887;DHT22;9069;52.044;7.472;2024-03-25T07:00:19;9.90;97.70
17887;DHT22;9069;52.044;7.472;2024-03-25T07:02:48;9.90;97.80
17887;DHT22;9069;52.044;7.472;2024-03-25T07:05:14;10.00;98.20
17887;DHT22;9069;52.044;7.472;2024-03-25T07:07:40;10.00;97.80
17887;DHT22;9069;52.044;7.472;2024-03-25T07:10:06;10.10;97.80
17887;DHT22;9069;52.044;7.472;2024-03-25T07:12:32;10.10;97.80
17887;DHT22;9069;52.044;7.472;2024-03-25T07:14:58;10.20;97.80
17887;DHT22;9069;52.044;7.472;2024-03-25T07:17:24;10.20;97.70
17887;DHT22;9069;52.044;7.472;2024-03-25T07:19:51;10.20;97.70
17887;DHT22;9069;52.044;7.472;2024-03-25T07:22:18;10.30;97.70
17887;DHT22;9069;52.044;7.472;2024-03-25T07:24:44;10.30;97.60
17887;DHT22;9069;52.044;7.472;2024-03-25T07:27:10;10.40;97.60
17887;DHT22;9069;52.044;7.472;2024-03-25T07:29:37;10.40;97.60
17887;DHT22;9069;52.044;7.472;2024-03-25T07:32:03;10.40;97.60
17887;DHT22;9069;52.044;7.472;2024-03-25T07:34:29;10.40;97.60
17887;DHT22;9069;52.044;7.472;2024-03-25T07:36:55;10.50;97.60
17887;DHT22;9069;52.044;7.472;2024-03-25T07:39:21;10.50;97.60
17887;DHT22;9069;52.044;7.472;2024-03-25T07:41:50;10.60;97.60
17887;DHT22;9069;52.044;7.472;2024-03-25T07:44:16;10.60;97.60
17887;DHT22;9069;52.044;7.472;2024-03-25T07:46:42;10.60;97.50
17887;DHT22;9069;52.044;7.472;2024-03-25T07:49:07;10.70;97.60
17887;DHT22;9069;52.044;7.472;2024-03-25T07:51:34;10.70;97.50
17887;DHT22;9069;52.044;7.472;2024-03-25T07:54:01;10.80;97.50
17887;DHT22;9069;52.044;7.472;2024-03-25T07:56:29;10.80;97.40
17887;DHT22;9069;52.044;7.472;2024-03-25T07:58:56;10.80;97.20
17887;DHT22;9069;52.044;7.472;2024-03-25T08:01:22;10.90;97.20
17887;DHT22;9069;52.044;7.472;2024-03-25T08:03:47;10.90;97.10
17887;DHT22;9069;52.044;7.472;2024-03-25T08:06:13;10.90;97.10
17887;DHT22;9069;52.044;7.472;2024-03-25T08:08:39;11.00;97.10
17887;DHT22;9069;52.044;7.472;2024-03-25T08:11:05;11.00;97.20
17887;DHT22;9069;52.044;7.472;2024-03-25T08:13:33;11.10;97.30
17887;DHT22;9069;52.044;7.472;2024-03-25T08:16:04;11.10;97.20
17887;DHT22;9069;52.044;7.472;2024-03-25T08:18:30;11.20;97.40
17887;DHT22;9069;52.044;7.472;2024-03-25T08:20:56;11.30;97.60
17887;DHT22;9069;52.044;7.472;2024-03-25T08:23:22;11.40;97.70
17887;DHT22;9069;52.044;7.472;2024-03-25T08:25:47;11.50;97.70
17887;DHT22;9069;52.044;7.472;2024-03-25T08:28:14;11.60;97.80
17887;DHT22;9069;52.044;7.472;2024-03-25T08:30:40;11.70;97.80
17887;DHT22;9069;52.044;7.472;2024-03-25T08:33:06;11.90;97.80
17887;DHT22;9069;52.044;7.472;2024-03-25T08:35:32;12.00;97.70
17887;DHT22;9069;52.044;7.472;2024-03-25T08:37:58;12.20;97.80
17887;DHT22;9069;52.044;7.472;2024-03-25T08:40:24;12.30;98.00
17887;DHT22;9069;52.044;7.472;2024-03-25T08:42:49;12.50;98.20
17887;DHT22;9069;52.044;7.472;2024-03-25T08:45:15;12.80;98.10
17887;DHT22;9069;52.044;7.472;2024-03-25T08:47:41;13.00;97.80
17887;DHT22;9069;52.044;7.472;2024-03-25T08:50:08;13.30;97.60
17887;DHT22;9069;52.044;7.472;2024-03-25T08:52:34;13.50;97.50
17887;DHT22;9069;52.044;7.472;2024-03-25T08:55:00;13.70;97.30
17887;DHT22;9069;52.044;7.472;2024-03-25T08:57:27;13.90;96.90
17887;DHT22;9069;52.044;7.472;2024-03-25T08:59:53;14.10;96.50
17887;DHT22;9069;52.044;7.472;2024-03-25T09:02:19;14.30;96.20
17887;DHT22;9069;52.044;7.472;2024-03-25T09:04:45;14.50;96.00
17887;DHT22;9069;52.044;7.472;2024-03-25T09:07:14;14.60;95.50
17887;DHT22;9069;52.044;7.472;2024-03-25T09:09:40;14.80;94.40
17887;DHT22;9069;52.044;7.472;2024-03-25T09:12:24;14.80;94.60
17887;DHT22;9069;52.044;7.472;2024-03-25T09:14:50;14.90;94.30
17887;DHT22;9069;52.044;7.472;2024-03-25T09:17:17;15.00;93.90
17887;DHT22;9069;52.044;7.472;2024-03-25T09:19:43;15.10;93.20
17887;DHT22;9069;52.044;7.472;2024-03-25T09:22:09;15.10;92.90
17887;DHT22;9069;52.044;7.472;2024-03-25T09:24:34;15.20;92.70
17887;DHT22;9069;52.044;7.472;2024-03-25T09:27:01;15.20;92.20
17887;DHT22;9069;52.044;7.472;2024-03-25T09:29:27;15.20;91.40
17887;DHT22;9069;52.044;7.472;2024-03-25T09:31:53;15.20;91.70
17887;DHT22;9069;52.044;7.472;2024-03-25T09:34:19;15.20;91.50
17887;DHT22;9069;52.044;7.472;2024-03-25T09:36:45;15.20;91.10
17887;DHT22;9069;52.044;7.472;2024-03-25T09:39:12;15.20;91.00
17887;DHT22;9069;52.044;7.472;2024-03-25T09:41:41;15.20;90.50
17887;DHT22;9069;52.044;7.472;2024-03-25T09:44:08;15.20;89.20
17887;DHT22;9069;52.044;7.472;2024-03-25T09:46:36;15.20;90.40
17887;DHT22;9069;52.044;7.472;2024-03-25T09:49:02;15.20;90.30
17887;DHT22;9069;52.044;7.472;2024-03-25T09:51:31;15.20;90.10
17887;DHT22;9069;52.044;7.472;2024-03-25T09:53:57;15.20;89.40
17887;DHT22;9069;52.044;7.472;2024-03-25T09:56:23;15.20;88.20
17887;DHT22;9069;52.044;7.472;2024-03-25T09:58:50;15.20;87.60
17887;DHT22;9069;52.044;7.472;2024-03-25T10:01:16;15.20;87.70
17887;DHT22;9069;52.044;7.472;2024-03-25T10:03:42;15.30;87.40
17887;DHT22;9069;52.044;7.472;2024-03-25T10:06:08;15.30;86.60
17887;DHT22;9069;52.044;7.472;2024-03-25T10:08:35;15.30;85.80
17887;DHT22;9069;52.044;7.472;2024-03-25T10:11:01;15.30;85.20
17887;DHT22;9069;52.044;7.472;2024-03-25T10:13:29;15.40;85.50
17887;DHT22;9069;52.044;7.472;2024-03-25T10:15:55;15.50;86.40
17887;DHT22;9069;52.044;7.472;2024-03-25T10:18:21;15.60;88.90
17887;DHT22;9069;52.044;7.472;2024-03-25T10:20:49;15.90;90.50
17887;DHT22;9069;52.044;7.472;2024-03-25T10:23:15;16.10;90.10
17887;DHT22;9069;52.044;7.472;2024-03-25T10:25:41;16.40;89.20
17887;DHT22;9069;52.044;7.472;2024-03-25T10:28:08;16.70;85.80
17887;DHT22;9069;52.044;7.472;2024-03-25T10:30:34;16.90;83.30
17887;DHT22;9069;52.044;7.472;2024-03-25T10:35:30;17.20;80.40
17887;DHT22;9069;52.044;7.472;2024-03-25T10:40:29;17.30;77.80
17887;DHT22;9069;52.044;7.472;2024-03-25T10:43:04;17.40;78.00
17887;DHT22;9069;52.044;7.472;2024-03-25T10:45:35;17.40;76.20
17887;DHT22;9069;52.044;7.472;2024-03-25T10:48:27;17.50;77.50
17887;DHT22;9069;52.044;7.472;2024-03-25T10:50:55;17.50;74.00
17887;DHT22;9069;52.044;7.472;2024-03-25T10:53:22;17.60;75.50
17887;DHT22;9069;52.044;7.472;2024-03-25T10:55:55;17.60;75.20
17887;DHT22;9069;52.044;7.472;2024-03-25T10:58:22;17.60;74.20
17887;DHT22;9069;52.044;7.472;2024-03-25T11:00:49;17.70;74.80
17887;DHT22;9069;52.044;7.472;2024-03-25T11:03:16;17.60;74.40
17887;DHT22;9069;52.044;7.472;2024-03-25T11:05:43;17.70;73.90
17887;DHT22;9069;52.044;7.472;2024-03-25T11:08:12;17.60;73.60
17887;DHT22;9069;52.044;7.472;2024-03-25T11:13:11;17.60;72.60
17887;DHT22;9069;52.044;7.472;2024-03-25T11:15:43;17.60;72.40
17887;DHT22;9069;52.044;7.472;2024-03-25T11:18:14;17.50;71.60
17887;DHT22;9069;52.044;7.472;2024-03-25T11:20:42;17.50;72.30
17887;DHT22;9069;52.044;7.472;2024-03-25T11:23:14;17.50;72.60
17887;DHT22;9069;52.044;7.472;2024-03-25T11:25:41;17.50;71.20
17887;DHT22;9069;52.044;7.472;2024-03-25T11:28:12;17.50;72.20
17887;DHT22;9069;52.044;7.472;2024-03-25T11:30:38;17.50;71.30
17887;DHT22;9069;52.044;7.472;2024-03-25T11:33:07;17.50;71.60
17887;DHT22;9069;52.044;7.472;2024-03-25T11:35:39;17.40;71.30
17887;DHT22;9069;52.044;7.472;2024-03-25T11:38:05;17.40;70.60
17887;DHT22;9069;52.044;7.472;2024-03-25T11:40:31;17.40;70.80
17887;DHT22;9069;52.044;7.472;2024-03-25T11:42:59;17.40;71.10
17887;DHT22;9069;52.044;7.472;2024-03-25T11:45:25;17.40;70.50
17887;DHT22;9069;52.044;7.472;2024-03-25T11:47:50;17.40;70.30
17887;DHT22;9069;52.044;7.472;2024-03-25T11:50:18;17.30;70.40
17887;DHT22;9069;52.044;7.472;2024-03-25T11:52:45;17.30;70.40
17887;DHT22;9069;52.044;7.472;2024-03-25T11:55:15;17.30;70.90
17887;DHT22;9069;52.044;7.472;2024-03-25T11:57:42;17.30;71.00
17887;DHT22;9069;52.044;7.472;2024-03-25T12:00:08;17.30;70.90
17887;DHT22;9069;52.044;7.472;2024-03-25T12:02:44;17.30;70.70
17887;DHT22;9069;52.044;7.472;2024-03-25T12:05:13;17.20;70.50
17887;DHT22;9069;52.044;7.472;2024-03-25T12:07:38;17.20;70.60
17887;DHT22;9069;52.044;7.472;2024-03-25T12:10:04;17.20;70.40
17887;DHT22;9069;52.044;7.472;2024-03-25T12:12:49;17.20;70.10
17887;DHT22;9069;52.044;7.472;2024-03-25T12:15:20;17.20;70.20
17887;DHT22;9069;52.044;7.472;2024-03-25T12:17:47;17.10;69.90
17887;DHT22;9069;52.044;7.472;2024-03-25T12:20:13;17.10;69.80
17887;DHT22;9069;52.044;7.472;2024-03-25T12:22:41;17.10;69.80
17887;DHT22;9069;52.044;7.472;2024-03-25T12:25:08;17.10;69.90
17887;DHT22;9069;52.044;7.472;2024-03-25T12:27:36;17.00;69.40
17887;DHT22;9069;52.044;7.472;2024-03-25T12:30:05;17.00;69.30
17887;DHT22;9069;52.044;7.472;2024-03-25T12:35:03;16.90;69.20
17887;DHT22;9069;52.044;7.472;2024-03-25T12:37:32;16.90;69.20
17887;DHT22;9069;52.044;7.472;2024-03-25T12:39:59;16.80;69.00
17887;DHT22;9069;52.044;7.472;2024-03-25T12:42:26;16.80;68.90
17887;DHT22;9069;52.044;7.472;2024-03-25T12:44:53;16.70;68.50
17887;DHT22;9069;52.044;7.472;2024-03-25T12:47:20;16.70;67.90
17887;DHT22;9069;52.044;7.472;2024-03-25T12:49:46;16.70;67.90
17887;DHT22;9069;52.044;7.472;2024-03-25T12:52:12;16.70;68.00
17887;DHT22;9069;52.044;7.472;2024-03-25T12:54:38;16.60;68.00
17887;DHT22;9069;52.044;7.472;2024-03-25T12:57:05;16.60;68.10
17887;DHT22;9069;52.044;7.472;2024-03-25T12:59:31;16.80;68.00
17887;DHT22;9069;52.044;7.472;2024-03-25T13:01:57;16.50;68.20
17887;DHT22;9069;52.044;7.472;2024-03-25T13:04:23;16.50;68.60
17887;DHT22;9069;52.044;7.472;2024-03-25T13:06:48;16.50;68.70
17887;DHT22;9069;52.044;7.472;2024-03-25T13:09:14;16.50;68.80
17887;DHT22;9069;52.044;7.472;2024-03-25T13:11:41;16.50;68.80
17887;DHT22;9069;52.044;7.472;2024-03-25T13:14:06;16.50;69.10
17887;DHT22;9069;52.044;7.472;2024-03-25T13:16:33;16.50;68.90
17887;DHT22;9069;52.044;7.472;2024-03-25T13:18:59;16.50;68.20
17887;DHT22;9069;52.044;7.472;2024-03-25T13:21:25;16.50;68.00
17887;DHT22;9069;52.044;7.472;2024-03-25T13:23:52;16.50;68.00
17887;DHT22;9069;52.044;7.472;2024-03-25T13:26:18;16.50;67.70
17887;DHT22;9069;52.044;7.472;2024-03-25T13:28:43;16.50;67.70
17887;DHT22;9069;52.044;7.472;2024-03-25T13:31:09;16.50;67.50
17887;DHT22;9069;52.044;7.472;2024-03-25T13:33:35;16.50;66.90
17887;DHT22;9069;52.044;7.472;2024-03-25T13:36:03;16.40;66.40
17887;DHT22;9069;52.044;7.472;2024-03-25T13:38:54;16.30;66.50
17887;DHT22;9069;52.044;7.472;2024-03-25T13:41:20;16.40;66.60
17887;DHT22;9069;52.044;7.472;2024-03-25T13:43:48;16.30;66.00
17887;DHT22;9069;52.044;7.472;2024-03-25T13:46:14;16.30;66.10
17887;DHT22;9069;52.044;7.472;2024-03-25T13:48:40;16.20;66.00
17887;DHT22;9069;52.044;7.472;2024-03-25T13:51:06;16.20;64.40
17887;DHT22;9069;52.044;7.472;2024-03-25T13:53:34;16.10;64.30
17887;DHT22;9069;52.044;7.472;2024-03-25T13:56:00;16.10;64.60
17887;DHT22;9069;52.044;7.472;2024-03-25T13:58:32;16.00;64.70
17887;DHT22;9069;52.044;7.472;2024-03-25T14:00:58;16.00;65.30
17887;DHT22;9069;52.044;7.472;2024-03-25T14:03:24;15.90;65.60
17887;DHT22;9069;52.044;7.472;2024-03-25T14:05:50;15.90;65.70
17887;DHT22;9069;52.044;7.472;2024-03-25T14:08:16;15.90;65.40
17887;DHT22;9069;52.044;7.472;2024-03-25T14:10:43;15.90;65.00
17887;DHT22;9069;52.044;7.472;2024-03-25T14:13:09;15.80;65.00
17887;DHT22;9069;52.044;7.472;2024-03-25T14:15:35;15.80;65.40
17887;DHT22;9069;52.044;7.472;2024-03-25T14:18:00;15.80;65.40
17887;DHT22;9069;52.044;7.472;2024-03-25T14:20:26;15.80;64.80
17887;DHT22;9069;52.044;7.472;2024-03-25T14:22:52;15.80;64.70
17887;DHT22;9069;52.044;7.472;2024-03-25T14:25:18;15.80;64.30
17887;DHT22;9069;52.044;7.472;2024-03-25T14:27:45;15.80;64.40
17887;DHT22;9069;52.044;7.472;2024-03-25T14:30:11;15.80;64.40
17887;DHT22;9069;52.044;7.472;2024-03-25T14:32:40;15.80;63.80
17887;DHT22;9069;52.044;7.472;2024-03-25T14:35:06;15.80;64.20
17887;DHT22;9069;52.044;7.472;2024-03-25T14:37:32;15.70;64.30
17887;DHT22;9069;52.044;7.472;2024-03-25T14:39:58;15.70;64.20
17887;DHT22;9069;52.044;7.472;2024-03-25T14:42:25;15.70;64.80
17887;DHT22;9069;52.044;7.472;2024-03-25T14:44:50;15.70;64.50
17887;DHT22;9069;52.044;7.472;2024-03-25T14:47:16;15.70;64.20
17887;DHT22;9069;52.044;7.472;2024-03-25T14:49:42;15.60;64.10
17887;DHT22;9069;52.044;7.472;2024-03-25T14:52:08;15.60;64.40
17887;DHT22;9069;52.044;7.472;2024-03-25T14:54:35;15.60;64.60
17887;DHT22;9069;52.044;7.472;2024-03-25T14:57:02;15.50;64.30
17887;DHT22;9069;52.044;7.472;2024-03-25T14:59:28;15.50;64.30
17887;DHT22;9069;52.044;7.472;2024-03-25T15:02:00;15.40;64.40
17887;DHT22;9069;52.044;7.472;2024-03-25T15:04:28;15.40;64.20
17887;DHT22;9069;52.044;7.472;2024-03-25T15:06:56;15.40;64.40
17887;DHT22;9069;52.044;7.472;2024-03-25T15:09:22;15.30;64.20
17887;DHT22;9069;52.044;7.472;2024-03-25T15:11:48;15.30;63.90
17887;DHT22;9069;52.044;7.472;2024-03-25T15:14:14;15.30;63.60
17887;DHT22;9069;52.044;7.472;2024-03-25T15:16:40;15.20;63.40
17887;DHT22;9069;52.044;7.472;2024-03-25T15:19:06;15.20;63.70
17887;DHT22;9069;52.044;7.472;2024-03-25T15:21:34;15.10;63.80
17887;DHT22;9069;52.044;7.472;2024-03-25T15:24:02;15.10;63.60
17887;DHT22;9069;52.044;7.472;2024-03-25T15:26:28;15.00;63.30
17887;DHT22;9069;52.044;7.472;2024-03-25T15:28:54;15.00;62.90
17887;DHT22;9069;52.044;7.472;2024-03-25T15:31:20;14.90;62.90
17887;DHT22;9069;52.044;7.472;2024-03-25T15:33:46;14.90;63.20
17887;DHT22;9069;52.044;7.472;2024-03-25T15:36:12;14.90;63.50
17887;DHT22;9069;52.044;7.472;2024-03-25T15:38:38;14.80;63.30
17887;DHT22;9069;52.044;7.472;2024-03-25T15:41:03;14.80;63.00
17887;DHT22;9069;52.044;7.472;2024-03-25T15:43:30;14.80;63.10
17887;DHT22;9069;52.044;7.472;2024-03-25T15:45:57;14.80;63.10
17887;DHT22;9069;52.044;7.472;2024-03-25T15:48:23;14.80;62.60
17887;DHT22;9069;52.044;7.472;2024-03-25T15:50:49;14.70;62.90
17887;DHT22;9069;52.044;7.472;2024-03-25T15:53:15;14.70;63.20
17887;DHT22;9069;52.044;7.472;2024-03-25T15:55:42;14.70;63.00
17887;DHT22;9069;52.044;7.472;2024-03-25T15:58:09;14.60;63.10
17887;DHT22;9069;52.044;7.472;2024-03-25T16:00:35;14.60;63.30